Portada
METAR-TAF:

METAR-TAF

Aeroports :

Yurimaguas, Perú

latitud: 05-54S, longitud: 076-05W, altitud: 179 m

Observació

L'informe es va fer fa 3 hores i 54 minuts, a les 22:00 UTC
Vent 4 kt del Nord-Est
Temperatura 31°C
Humitat 79%
Pressió 1009 hPa
Visibilitat 10 km o més
Escasses núvols a una alçada de 3000 ft

METAR: SPMS 172200Z 04004KT 9999 FEW030 31/27 Q1009 RMK BIRD HAZARD RWY09/27 TX32.8 PP000

Hora: 20:54 (01:54 UTC)

Pronòstic

L'informe es va fer fa 8 hores i 54 minuts, a les 17:00 UTC
Pronòstic vàlid del 17 a les 18 UTC al 18 a les 18 UTC
Vent 4 kt del Est
Visibilitat 10 km o més
Núvols disperses a una alçada de 2500 ft
Temporalment
l' 18 a les 10 UTC al 18 a les 14 UTC
Visibilitat: 3000 m
Núvols disperses a una alçada de 800 ft
boirina,

TAF: SPMS 171700Z 1718/1818 10004KT 9999 SCT025 TX31/1720Z TN24/1811Z TEMPO 1810/1814 3000 BR SCT008

Observacions i pronòstics meteorològics de més de 4000 aeroports (METAR i TAF).

Les estacions disponibles són els punts grocs i vermells al mapa.

Posi el ratolí al punt desitjat per veure el nom de l'estació.

Feu clic per veure les observacions i els pronòstics meteorològics.

Per canviar el mapa: feu clic els botons verds amb una creu de color negre per apropar; al botó verd amb un guió per allunyar la imatge; o en les fletxes verdes per a mapes adjacents.


METAR-TAF: